| time (UTC) | temp C | wind direction | speed KPH | gust KPH | rain 1hr cm | rain 24hr cm | rain mn cm | humidity % | barometer mb |
| 20260505153302 | 20 | 251 | 0.0 | 4.8 | 0.00 | 0.00 | 0.00 | 66 | 1006.5 |
| 20260505152402 | 20 | 50 | 0.0 | 1.6 | 0.00 | 0.00 | 0.00 | 70 | 1006.5 |
| 20260505151502 | 18 | 49 | 0.0 | 3.2 | 0.00 | 0.00 | 0.00 | 74 | 1006.4 |
| 20260505140302 | 12 | 79 | 1.6 | 4.8 | 0.00 | 0.00 | 0.00 | 86 | 1005.8 |
| 20260505124202 | 9 | 92 | 4.8 | 8.0 | 0.00 | 0.00 | 0.00 | 89 | 1004.8 |
| 20260505122402 | 10 | 92 | 3.2 | 6.4 | 0.00 | 0.00 | 0.00 | 90 | 1004.6 |
| 20260505121502 | 9 | 87 | 3.2 | 6.4 | 0.00 | 0.00 | 0.00 | 89 | 1004.5 |
| 20260505120602 | 10 | 88 | 4.8 | 6.4 | 0.00 | 0.00 | 0.00 | 88 | 1004.5 |
| 20260505114802 | 10 | 102 | 3.2 | 4.8 | 0.00 | 0.00 | 0.00 | 89 | 1004.3 |
| 20260505112102 | 10 | 95 | 3.2 | 6.4 | 0.00 | 0.00 | 0.00 | 88 | 1004.1 |
| 20260505111202 | 10 | 99 | 3.2 | 6.4 | 0.00 | 0.00 | 0.00 | 89 | 1004.0 |
| 20260505110302 | 10 | 84 | 3.2 | 6.4 | 0.00 | 0.00 | 0.00 | 88 | 1003.8 |
| 20260505101802 | 10 | 86 | 3.2 | 6.4 | 0.00 | 0.00 | 0.00 | 89 | 1003.4 |
| 20260505100902 | 11 | 97 | 3.2 | 6.4 | 0.00 | 0.00 | 0.00 | 88 | 1003.3 |
| 20260505100002 | 11 | 92 | 1.6 | 4.8 | 0.00 | 0.00 | 0.00 | 88 | 1003.1 |
| 20260505095102 | 11 | 86 | 3.2 | 6.4 | 0.00 | 0.00 | 0.00 | 88 | 1003.1 |
| 20260505094202 | 11 | 92 | 1.6 | 6.4 | 0.00 | 0.00 | 0.00 | 89 | 1003.1 |
| 20260505092402 | 11 | 86 | 3.2 | 4.8 | 0.00 | 0.00 | 0.00 | 88 | 1003.0 |
| 20260505091502 | 11 | 82 | 0.0 | 4.8 | 0.00 | 0.00 | 0.00 | 87 | 1003.1 |
| 20260505085702 | 12 | 80 | 3.2 | 6.4 | 0.00 | 0.00 | 0.00 | 86 | 1002.9 |
| 20260505084802 | 12 | 88 | 3.2 | 6.4 | 0.00 | 0.00 | 0.00 | 85 | 1002.8 |
| 20260505083902 | 12 | 78 | 3.2 | 6.4 | 0.00 | 0.00 | 0.00 | 84 | 1002.7 |
| 20260505082102 | 13 | 94 | 4.8 | 8.0 | 0.00 | 0.00 | 0.00 | 84 | 1002.6 |
| 20260505081202 | 12 | 96 | 4.8 | 8.0 | 0.00 | 0.00 | 0.00 | 85 | 1002.5 |
| 20260505075402 | 13 | 93 | 3.2 | 4.8 | 0.00 | 0.00 | 0.00 | 84 | 1002.3 |
| 20260505074502 | 12 | 101 | 3.2 | 4.8 | 0.00 | 0.00 | 0.00 | 85 | 1002.3 |
| 20260505073602 | 13 | 97 | 0.0 | 3.2 | 0.00 | 0.00 | 0.00 | 83 | 1002.3 |
| 20260505071802 | 13 | 259 | 4.8 | 17.7 | 0.00 | 0.00 | 0.00 | 82 | 1002.4 |
| 20260505070002 | 13 | 97 | 1.6 | 4.8 | 0.00 | 0.00 | 0.00 | 81 | 1001.8 |
| 20260505064202 | 14 | 98 | 3.2 | 6.4 | 0.00 | 0.00 | 0.00 | 80 | 1001.6 |
| 20260505063302 | 14 | 84 | 3.2 | 6.4 | 0.00 | 0.00 | 0.00 | 79 | 1001.6 |
| 20260505061502 | 15 | 78 | 0.0 | 3.2 | 0.00 | 0.00 | 0.00 | 79 | 1001.5 |
| 20260505060602 | 15 | 75 | 3.2 | 8.0 | 0.00 | 0.00 | 0.00 | 79 | 1001.4 |
| 20260505054802 | 15 | 80 | 4.8 | 8.0 | 0.00 | 0.00 | 0.00 | 79 | 1001.3 |
| 20260505053002 | 15 | 80 | 1.6 | 6.4 | 0.00 | 0.00 | 0.00 | 78 | 1001.3 |
| 20260505050302 | 16 | 76 | 3.2 | 8.0 | 0.00 | 0.00 | 0.00 | 73 | 1001.2 |
| 20260505035102 | 18 | 102 | 4.8 | 11.3 | 0.00 | 0.00 | 0.00 | 64 | 1000.5 |
| 20260505031502 | 21 | 101 | 3.2 | 6.4 | 0.00 | 0.00 | 0.00 | 59 | 1000.2 |
| 20260505030602 | 22 | 106 | 6.4 | 8.0 | 0.00 | 0.00 | 0.00 | 54 | 1000.0 |
| 20260505025702 | 22 | 106 | 6.4 | 9.7 | 0.00 | 0.00 | 0.00 | 55 | 1000.0 |
| 20260505024802 | 22 | 107 | 4.8 | 9.7 | 0.00 | 0.00 | 0.00 | 57 | 999.9 |
| 20260505023902 | 23 | 108 | 4.8 | 6.4 | 0.00 | 0.00 | 0.00 | 56 | 1000.0 |
| 20260505023002 | 25 | 120 | 1.6 | 6.4 | 0.00 | 0.00 | 0.00 | 53 | 999.9 |
| 20260505022102 | 26 | 160 | 3.2 | 6.4 | 0.00 | 0.00 | 0.00 | 44 | 1000.0 |
| 20260505014502 | 27 | 147 | 0.0 | 6.4 | 0.00 | 0.00 | 0.00 | 43 | 1000.1 |
| 20260505013602 | 27 | 118 | 1.6 | 4.8 | 0.00 | 0.00 | 0.00 | 41 | 1000.2 |
| 20260505012702 | 28 | 121 | 1.6 | 6.4 | 0.00 | 0.00 | 0.00 | 41 | 1000.3 |
| 20260505011802 | 28 | 147 | 1.6 | 6.4 | 0.00 | 0.00 | 0.00 | 40 | 1000.4 |
| 20260505010902 | 28 | 154 | 1.6 | 8.0 | 0.00 | 0.00 | 0.00 | 40 | 1000.4 |
| 20260505010003 | 28 | 117 | 6.4 | 12.9 | 0.00 | 0.00 | 0.00 | 37 | 1000.5 |
| 20260505005102 | 28 | 117 | 6.4 | 12.9 | 0.00 | 0.00 | 0.00 | 36 | 1000.4 |
| 20260505004202 | 28 | 120 | 4.8 | 14.5 | 0.00 | 0.00 | 0.00 | 37 | 1000.5 |
| 20260505003302 | 30 | 149 | 4.8 | 8.0 | 0.00 | 0.00 | 0.00 | 33 | 1000.6 |
| 20260505002402 | 30 | 148 | 4.8 | 11.3 | 0.00 | 0.00 | 0.00 | 34 | 1000.7 |
| 20260505001502 | 30 | 144 | 4.8 | 9.7 | 0.00 | 0.00 | 0.00 | 32 | 1000.8 |
| 20260504235702 | 30 | 251 | 3.2 | 6.4 | 0.00 | 0.00 | 0.00 | 30 | 1000.8 |
| 20260504234802 | 30 | 257 | 3.2 | 8.0 | 0.00 | 0.00 | 0.00 | 31 | 1000.8 |
| 20260504233902 | 30 | 113 | 0.0 | 6.4 | 0.00 | 0.00 | 0.00 | 30 | 1000.9 |
| 20260504233002 | 30 | 116 | 1.6 | 6.4 | 0.00 | 0.00 | 0.00 | 29 | 1000.9 |
| 20260504231202 | 30 | 252 | 3.2 | 9.7 | 0.00 | 0.00 | 0.00 | 32 | 1001.0 |
| 20260504230302 | 30 | 196 | 3.2 | 9.7 | 0.00 | 0.00 | 0.00 | 30 | 1001.2 |
| 20260504225402 | 30 | 201 | 3.2 | 8.0 | 0.00 | 0.00 | 0.00 | 28 | 1001.2 |
| 20260504224502 | 29 | 145 | 3.2 | 9.7 | 0.00 | 0.00 | 0.00 | 29 | 1001.3 |
| 20260504223602 | 28 | 106 | 3.2 | 9.7 | 0.00 | 0.00 | 0.00 | 30 | 1001.5 |
| 20260504222702 | 29 | 109 | 6.4 | 19.3 | 0.00 | 0.00 | 0.00 | 30 | 1001.6 |
| 20260504221802 | 29 | 239 | 3.2 | 8.0 | 0.00 | 0.00 | 0.00 | 30 | 1001.6 |
| 20260504220902 | 29 | 224 | 3.2 | 12.9 | 0.00 | 0.00 | 0.00 | 31 | 1001.8 |
| 20260504220002 | 28 | 246 | 1.6 | 12.9 | 0.00 | 0.00 | 0.00 | 33 | 1001.8 |
| 20260504215102 | 28 | 236 | 0.0 | 4.8 | 0.00 | 0.00 | 0.00 | 31 | 1001.9 |
| 20260504214202 | 28 | 258 | 6.4 | 9.7 | 0.00 | 0.00 | 0.00 | 31 | 1002.1 |
| 20260504213302 | 28 | 239 | 4.8 | 12.9 | 0.00 | 0.00 | 0.00 | 34 | 1002.2 |
| 20260504212402 | 28 | 252 | 4.8 | 12.9 | 0.00 | 0.00 | 0.00 | 34 | 1002.3 |
| 20260504210602 | 27 | 250 | 6.4 | 11.3 | 0.00 | 0.00 | 0.00 | 37 | 1002.5 |
| 20260504205702 | 27 | 256 | 4.8 | 11.3 | 0.00 | 0.00 | 0.00 | 36 | 1002.6 |
| 20260504204802 | 27 | 262 | 4.8 | 12.9 | 0.00 | 0.00 | 0.00 | 30 | 1002.7 |
| 20260504203902 | 27 | 257 | 6.4 | 11.3 | 0.00 | 0.00 | 0.00 | 32 | 1002.8 |
| 20260504203002 | 27 | 259 | 4.8 | 11.3 | 0.00 | 0.00 | 0.00 | 38 | 1002.9 |
| 20260504202102 | 27 | 259 | 4.8 | 11.3 | 0.00 | 0.00 | 0.00 | 32 | 1003.0 |
| 20260504201202 | 27 | 273 | 3.2 | 11.3 | 0.00 | 0.00 | 0.00 | 34 | 1003.1 |
| 20260504200304 | 27 | 274 | 3.2 | 8.0 | 0.00 | 0.00 | 0.00 | 39 | 1003.1 |
| 20260504194502 | 26 | 274 | 4.8 | 11.3 | 0.00 | 0.00 | 0.00 | 38 | 1003.2 |
| 20260504193603 | 26 | 270 | 4.8 | 11.3 | 0.00 | 0.00 | 0.00 | 35 | 1003.2 |
| 20260504192702 | 26 | 263 | 6.4 | 11.3 | 0.00 | 0.00 | 0.00 | 37 | 1003.3 |
| 20260504191802 | 25 | 261 | 6.4 | 11.3 | 0.00 | 0.00 | 0.00 | 39 | 1003.3 |
| 20260504185103 | 25 | 270 | 4.8 | 11.3 | 0.00 | 0.00 | 0.00 | 38 | 1003.4 |
| 20260504184202 | 25 | 272 | 4.8 | 9.7 | 0.00 | 0.00 | 0.00 | 39 | 1003.5 |
| 20260504183303 | 25 | 269 | 6.4 | 12.9 | 0.00 | 0.00 | 0.00 | 37 | 1003.6 |
| 20260504182402 | 25 | 287 | 3.2 | 8.0 | 0.00 | 0.00 | 0.00 | 39 | 1003.6 |
| 20260504180603 | 25 | 317 | 1.6 | 8.0 | 0.00 | 0.00 | 0.00 | 42 | 1003.8 |
| 20260504175703 | 24 | 285 | 3.2 | 8.0 | 0.00 | 0.00 | 0.00 | 43 | 1003.9 |
| 20260504174803 | 23 | 291 | 1.6 | 8.0 | 0.00 | 0.00 | 0.00 | 47 | 1003.8 |
| 20260504173902 | 23 | 275 | 3.2 | 8.0 | 0.00 | 0.00 | 0.00 | 51 | 1003.8 |
| 20260504173002 | 22 | 274 | 4.8 | 9.7 | 0.00 | 0.00 | 0.00 | 49 | 1003.7 |
| 20260504172102 | 22 | 263 | 8.0 | 12.9 | 0.00 | 0.00 | 0.00 | 49 | 1003.8 |
| 20260504171203 | 22 | 266 | 4.8 | 12.9 | 0.00 | 0.00 | 0.00 | 50 | 1003.7 |
| 20260504170303 | 21 | 273 | 4.8 | 11.3 | 0.00 | 0.00 | 0.00 | 54 | 1003.9 |